This is the latest recevied weather packets stored in our database for station/object KX4O-13. If no packets are shown the sender has not sent any weather packets the latest 10 day(s).
| Time | Temp. | Humidity | Pressure | Rain* | Wind** | Luminosity | Snow |
|---|---|---|---|---|---|---|---|
| 1777910754 | 22.22° C | 41% | 1013.5 hPa | 0 mm | - | 823 W/m² | - |
| 1777910455 | 21.11° C | 37% | 1013.6 hPa | 0 mm | - | 816 W/m² | - |
| 1777910154 | 21.11° C | 37% | 1013.6 hPa | 0 mm | - | 812 W/m² | - |
| 1777909857 | 21.11° C | 38% | 1013.5 hPa | 0 mm | - | 803 W/m² | - |
| 1777909554 | 21.11° C | 40% | 1013.6 hPa | 0 mm | - | 800 W/m² | - |
| 1777909254 | 20.56° C | 38% | 1013.8 hPa | 0 mm | - | 791 W/m² | - |
| 1777908954 | 20.56° C | 42% | 1014 hPa | 0 mm | - | 779 W/m² | - |
| 1777908655 | 20° C | 39% | 1014 hPa | 0 mm | - | 773 W/m² | - |
| 1777908355 | 20° C | 39% | 1014 hPa | 0 mm | - | 763 W/m² | - |
| 1777908055 | 20.56° C | 42% | 1014 hPa | 0 mm | - | 751 W/m² | - |
| 1777907755 | 20° C | 42% | 1014.2 hPa | 0 mm | - | 747 W/m² | - |
| 1777907456 | 20° C | 42% | 1014 hPa | 0 mm | - | 733 W/m² | - |
| 1777907154 | 19.44° C | 41% | 1014 hPa | 0 mm | - | 724 W/m² | - |
| 1777906855 | 20° C | 43% | 1014.2 hPa | 0 mm | - | 714 W/m² | - |
| 1777906555 | 19.44° C | 41% | 1014.2 hPa | 0 mm | - | 701 W/m² | - |
| 1777906255 | 19.44° C | 42% | 1014.4 hPa | 0 mm | - | 693 W/m² | - |
| 1777905955 | 19.44° C | 44% | 1014.4 hPa | 0 mm | - | 684 W/m² | - |
| 1777905655 | 18.89° C | 44% | 1014.3 hPa | 0 mm | - | 670 W/m² | - |
| 1777905355 | 18.33° C | 45% | 1014.3 hPa | 0 mm | - | 657 W/m² | - |
| 1777905057 | 18.33° C | 44% | 1014.3 hPa | 0 mm | - | 640 W/m² | - |
| 1777904755 | 18.33° C | 44% | 1014.4 hPa | 0 mm | - | 635 W/m² | - |
| 1777904455 | 17.78° C | 49% | 1014.3 hPa | 0 mm | - | 622 W/m² | - |
| 1777904155 | 17.22° C | 48% | 1014.3 hPa | 0 mm | - | 610 W/m² | - |
| 1777903857 | 17.22° C | 49% | 1014.4 hPa | 0 mm | - | 601 W/m² | - |
| 1777903555 | 17.22° C | 50% | 1014.5 hPa | 0 mm | - | 585 W/m² | - |
* Rain latest hour (hover to see other rain measurements)
** Current wind speed in m/s (hover to see current wind gust speed)